createdAt,value
2019-05-11T00:00:24.519Z,9.55
2019-05-11T00:01:28.262Z,11.33
2019-05-11T00:02:32.021Z,10.88
2019-05-11T00:03:35.798Z,12.82
2019-05-11T00:04:39.535Z,9.13
2019-05-11T00:05:43.282Z,9.45
2019-05-11T00:06:47.034Z,9.95
2019-05-11T00:07:50.912Z,11.20
2019-05-11T00:08:54.708Z,10.25
2019-05-11T00:09:58.758Z,8.85
2019-05-11T00:11:02.511Z,9.43
2019-05-11T00:12:07.023Z,9.05
2019-05-11T00:13:10.784Z,9.23
2019-05-11T00:14:14.572Z,9.00
2019-05-11T00:15:18.384Z,8.83
2019-05-11T00:16:22.140Z,10.03
2019-05-11T00:17:25.891Z,8.45
2019-05-11T00:18:29.631Z,7.70
2019-05-11T00:19:33.442Z,7.45
2019-05-11T00:20:37.200Z,9.40
2019-05-11T00:21:40.942Z,7.62
2019-05-11T00:22:44.695Z,10.80
2019-05-11T00:23:48.448Z,7.20
2019-05-11T00:24:52.239Z,7.58
2019-05-11T00:25:55.986Z,8.48
2019-05-11T00:26:59.803Z,7.33
2019-05-11T00:28:03.653Z,7.47
2019-05-11T00:29:07.383Z,9.88
2019-05-11T00:30:11.270Z,7.45
2019-05-11T00:31:15.016Z,9.35
2019-05-11T00:32:22.456Z,9.98
2019-05-11T00:33:24.199Z,13.15
2019-05-11T00:34:27.960Z,13.75
2019-05-11T00:35:31.713Z,12.82
2019-05-11T00:36:35.514Z,15.35
2019-05-11T00:37:39.264Z,18.00
2019-05-11T00:38:43.024Z,18.30
2019-05-11T00:39:46.770Z,21.85
2019-05-11T00:40:50.531Z,23.25
2019-05-11T00:41:54.328Z,18.35
2019-05-11T00:42:58.090Z,20.15
2019-05-11T00:44:01.851Z,20.45
2019-05-11T00:45:07.158Z,23.92
2019-05-11T00:46:10.909Z,19.62
2019-05-11T00:47:14.703Z,20.60
2019-05-11T00:48:18.460Z,18.35
2019-05-11T00:49:22.275Z,20.50
2019-05-11T00:50:38.843Z,25.05
2019-05-11T00:51:31.437Z,20.20
2019-05-11T00:52:35.228Z,22.05
2019-05-11T00:53:38.963Z,22.60
2019-05-11T00:54:42.723Z,25.05
2019-05-11T00:55:46.472Z,23.10
2019-05-11T00:56:50.224Z,23.75
2019-05-11T00:57:54.010Z,24.27
2019-05-11T00:58:57.836Z,23.32
2019-05-11T01:00:01.581Z,23.27
2019-05-11T01:01:05.428Z,22.60
2019-05-11T01:02:09.189Z,22.20
2019-05-11T01:03:12.987Z,25.50
2019-05-11T01:04:16.772Z,25.55
2019-05-11T01:05:20.754Z,23.57
2019-05-11T01:06:24.542Z,26.48
2019-05-11T01:07:28.278Z,28.07
2019-05-11T01:08:32.055Z,26.02
2019-05-11T01:09:35.807Z,30.23
2019-05-11T01:10:42.372Z,27.22
2019-05-11T01:11:44.998Z,27.85
2019-05-11T01:12:48.755Z,27.82
2019-05-11T01:13:52.508Z,24.35
2019-05-11T01:14:56.252Z,24.45
2019-05-11T01:16:00.051Z,30.32
2019-05-11T01:17:03.816Z,24.92
2019-05-11T01:18:07.675Z,26.25
2019-05-11T01:19:11.427Z,27.80
2019-05-11T01:20:18.461Z,27.70
2019-05-11T01:21:20.771Z,27.87
2019-05-11T01:22:24.524Z,26.30
2019-05-11T01:23:28.270Z,27.70
2019-05-11T01:24:32.015Z,26.95
2019-05-11T01:25:35.803Z,27.93
2019-05-11T01:26:39.556Z,26.55
2019-05-11T01:27:43.312Z,28.47
2019-05-11T01:28:47.066Z,29.35
2019-05-11T01:29:50.823Z,28.57
2019-05-11T01:30:54.607Z,28.10
2019-05-11T01:31:58.362Z,30.37
2019-05-11T01:33:02.119Z,28.73
2019-05-11T01:34:05.875Z,25.77
2019-05-11T01:35:09.969Z,29.05
2019-05-11T01:36:13.696Z,24.80
2019-05-11T01:37:17.448Z,28.80
2019-05-11T01:38:21.190Z,27.30
2019-05-11T01:39:24.951Z,24.23
2019-05-11T01:40:28.751Z,27.48
2019-05-11T01:41:32.516Z,26.55
2019-05-11T01:42:36.260Z,26.62
2019-05-11T01:43:40.022Z,26.35
2019-05-11T01:44:43.766Z,27.30
2019-05-11T01:45:47.551Z,25.60
2019-05-11T01:46:51.305Z,27.30
2019-05-11T01:47:55.530Z,26.70
2019-05-11T01:48:59.279Z,30.45
2019-05-11T01:50:03.366Z,28.45
2019-05-11T01:51:07.155Z,28.38
2019-05-11T01:52:10.902Z,26.00
2019-05-11T01:53:14.691Z,26.97
2019-05-11T01:54:18.443Z,28.32
2019-05-11T01:55:22.488Z,27.73
2019-05-11T01:56:26.234Z,26.35
2019-05-11T01:57:29.993Z,27.13
2019-05-11T01:58:33.752Z,29.90
2019-05-11T01:59:37.536Z,27.82
2019-05-11T02:00:41.303Z,28.15
2019-05-11T02:01:45.058Z,27.13
2019-05-11T02:02:48.815Z,29.87
2019-05-11T02:03:52.562Z,29.87
2019-05-11T02:05:13.525Z,29.48
2019-05-11T02:06:17.089Z,25.88
2019-05-11T02:07:21.022Z,23.98
2019-05-11T02:08:24.583Z,29.77
2019-05-11T02:09:28.559Z,25.72
2019-05-11T02:10:32.371Z,28.73
2019-05-11T02:11:36.371Z,25.82
2019-05-11T02:12:39.976Z,26.85
2019-05-11T02:13:43.911Z,24.45
2019-05-11T02:14:47.483Z,28.23
2019-05-11T02:15:51.414Z,25.85
2019-05-11T02:16:54.991Z,28.45
2019-05-11T02:17:58.975Z,26.73
2019-05-11T02:19:02.549Z,23.77
2019-05-11T02:20:06.827Z,29.27
2019-05-11T02:21:10.397Z,27.73
2019-05-11T02:22:14.367Z,27.62
2019-05-11T02:23:17.942Z,26.80
2019-05-11T02:24:21.871Z,34.30
2019-05-11T02:25:25.520Z,26.10
2019-05-11T02:26:29.450Z,23.25
2019-05-11T02:27:33.056Z,25.97
2019-05-11T02:28:36.996Z,28.42
2019-05-11T02:29:41.576Z,30.20
2019-05-11T02:30:45.707Z,26.30
2019-05-11T02:31:49.300Z,25.85
2019-05-11T02:32:53.285Z,28.95
2019-05-11T02:33:56.914Z,26.25
2019-05-11T02:35:00.839Z,27.02
2019-05-11T02:36:04.501Z,24.75
2019-05-11T02:37:08.468Z,33.67
2019-05-11T02:38:12.053Z,26.33
2019-05-11T02:39:16.029Z,22.77
2019-05-11T02:40:20.036Z,24.32
2019-05-11T02:41:35.661Z,32.95
2019-05-11T02:42:29.490Z,22.37
2019-05-11T02:43:33.708Z,22.58
2019-05-11T02:44:37.273Z,23.80
2019-05-11T02:45:42.672Z,23.42
2019-05-11T02:46:46.225Z,27.58
2019-05-11T02:47:50.187Z,26.30
2019-05-11T02:48:53.753Z,22.37
2019-05-11T02:49:57.729Z,27.77
2019-05-11T02:51:01.288Z,27.27
2019-05-11T02:52:05.302Z,35.52
2019-05-11T02:53:09.403Z,25.45
2019-05-11T02:54:14.211Z,27.60
2019-05-11T02:55:17.793Z,27.52
2019-05-11T02:56:21.736Z,24.57
2019-05-11T02:57:25.296Z,27.00
2019-05-11T02:58:29.227Z,26.70
2019-05-11T02:59:32.835Z,26.95
2019-05-11T03:00:41.932Z,24.07
2019-05-11T03:01:45.505Z,28.75
2019-05-11T03:02:49.447Z,26.02
2019-05-11T03:03:53.061Z,25.20
2019-05-11T03:04:57.002Z,24.70
2019-05-11T03:06:00.575Z,25.60
2019-05-11T03:07:04.511Z,24.50
2019-05-11T03:08:08.234Z,24.37
2019-05-11T03:09:12.215Z,25.92
2019-05-11T03:10:15.998Z,29.90
2019-05-11T03:11:19.951Z,23.50
2019-05-11T03:12:23.527Z,26.37
2019-05-11T03:13:27.464Z,25.23
2019-05-11T03:14:31.039Z,24.82
2019-05-11T03:15:35.019Z,23.75
2019-05-11T03:16:38.595Z,25.60
2019-05-11T03:17:42.529Z,29.35
2019-05-11T03:18:46.102Z,24.77
2019-05-11T03:19:50.081Z,24.80
2019-05-11T03:20:53.673Z,23.30
2019-05-11T03:21:57.604Z,25.70
2019-05-11T03:23:01.176Z,24.82
2019-05-11T03:24:05.185Z,26.35
2019-05-11T03:25:08.829Z,24.52
2019-05-11T03:26:12.794Z,23.65
2019-05-11T03:27:16.369Z,27.93
2019-05-11T03:28:20.347Z,25.20
2019-05-11T03:29:23.918Z,25.40
2019-05-11T03:30:27.931Z,28.27
2019-05-11T03:31:31.516Z,27.65
2019-05-11T03:32:35.466Z,24.52
2019-05-11T03:33:39.077Z,25.15
2019-05-11T03:34:43.020Z,24.55
2019-05-11T03:35:46.593Z,26.65
2019-05-11T03:36:50.556Z,24.40
2019-05-11T03:37:54.129Z,23.22
2019-05-11T03:38:58.106Z,25.85
2019-05-11T03:40:01.665Z,25.30
2019-05-11T03:41:05.662Z,27.80
2019-05-11T03:42:14.581Z,26.10
2019-05-11T03:43:14.826Z,29.07
2019-05-11T03:44:18.443Z,22.42
2019-05-11T03:45:22.382Z,31.50
2019-05-11T03:46:25.962Z,28.30
2019-05-11T03:47:29.964Z,25.68
2019-05-11T03:48:33.527Z,29.75
2019-05-11T03:49:37.501Z,30.45
2019-05-11T03:50:41.286Z,29.12
2019-05-11T03:51:45.201Z,30.92
2019-05-11T03:52:48.803Z,28.20
2019-05-11T03:53:52.735Z,32.38
2019-05-11T03:54:56.322Z,28.57
2019-05-11T03:56:00.239Z,29.35
2019-05-11T03:57:03.861Z,27.87
2019-05-11T03:58:07.798Z,28.25
2019-05-11T03:59:11.364Z,29.00
2019-05-11T04:00:15.934Z,28.23
2019-05-11T04:01:19.552Z,28.42
2019-05-11T04:02:23.562Z,28.07
2019-05-11T04:03:27.124Z,27.67
2019-05-11T04:04:31.077Z,26.48
2019-05-11T04:05:34.635Z,30.62
2019-05-11T04:06:38.620Z,32.03
2019-05-11T04:07:42.189Z,37.50
2019-05-11T04:08:46.119Z,30.23
2019-05-11T04:09:49.725Z,30.17
2019-05-11T04:10:53.654Z,32.70
2019-05-11T04:11:57.210Z,28.47
2019-05-11T04:13:01.144Z,28.23
2019-05-11T04:14:04.717Z,26.52
2019-05-11T04:15:10.832Z,25.55
2019-05-11T04:16:14.403Z,26.55
2019-05-11T04:17:19.615Z,28.17
2019-05-11T04:18:23.225Z,30.95
2019-05-11T04:19:27.164Z,26.65
2019-05-11T04:20:30.739Z,25.68
2019-05-11T04:21:34.703Z,25.90
2019-05-11T04:22:38.256Z,25.27
2019-05-11T04:23:42.243Z,24.65
2019-05-11T04:24:45.810Z,24.98
2019-05-11T04:25:49.748Z,25.60
2019-05-11T04:26:53.311Z,24.43
2019-05-11T04:27:57.255Z,24.98
2019-05-11T04:29:00.873Z,26.48
2019-05-11T04:30:06.843Z,30.30
2019-05-11T04:31:10.421Z,28.67
2019-05-11T04:32:14.351Z,25.70
2019-05-11T04:33:17.924Z,26.62
2019-05-11T04:34:21.905Z,28.83
2019-05-11T04:35:25.463Z,29.85
2019-05-11T04:36:29.423Z,27.02
2019-05-11T04:37:32.987Z,28.38
2019-05-11T04:38:36.937Z,27.93
2019-05-11T04:39:40.551Z,25.72
2019-05-11T04:40:44.489Z,24.00
2019-05-11T04:41:48.118Z,31.65
2019-05-11T04:42:55.773Z,26.68
2019-05-11T04:43:57.251Z,25.12
2019-05-11T04:45:01.193Z,26.10
2019-05-11T04:46:04.758Z,28.05
2019-05-11T04:47:08.737Z,29.55
2019-05-11T04:48:12.372Z,25.80
2019-05-11T04:49:16.320Z,25.77
2019-05-11T04:50:19.892Z,26.85
2019-05-11T04:51:23.875Z,27.55
2019-05-11T04:52:27.484Z,29.10
2019-05-11T04:53:31.453Z,30.37
2019-05-11T04:54:35.021Z,29.67
2019-05-11T04:55:39.027Z,22.25
2019-05-11T04:56:42.600Z,28.38
2019-05-11T04:57:46.535Z,26.75
2019-05-11T04:58:50.138Z,27.48
2019-05-11T04:59:54.077Z,29.60
2019-05-11T05:00:57.643Z,27.73
2019-05-11T05:02:01.603Z,26.23
2019-05-11T05:03:05.171Z,28.45
2019-05-11T05:04:13.937Z,29.50
2019-05-11T05:05:14.413Z,27.40
2019-05-11T05:06:22.445Z,25.40
2019-05-11T05:07:23.664Z,25.40
2019-05-11T05:08:28.093Z,29.15
2019-05-11T05:09:36.067Z,29.92
2019-05-11T05:10:37.265Z,26.48
2019-05-11T05:11:40.862Z,25.45
2019-05-11T05:12:50.365Z,33.10
2019-05-11T05:13:53.415Z,27.20
2019-05-11T05:14:55.605Z,30.68
2019-05-11T05:15:59.167Z,27.98
2019-05-11T05:17:03.140Z,27.35
2019-05-11T05:18:06.783Z,27.32
2019-05-11T05:19:10.723Z,28.23
2019-05-11T05:20:14.670Z,29.27
2019-05-11T05:21:18.603Z,28.73
2019-05-11T05:22:22.215Z,25.62
2019-05-11T05:23:26.139Z,25.85
2019-05-11T05:24:29.750Z,27.40
2019-05-11T05:25:33.689Z,30.72
2019-05-11T05:26:37.338Z,27.37
2019-05-11T05:27:41.308Z,26.73
2019-05-11T05:28:45.849Z,27.05
2019-05-11T05:29:49.903Z,26.57
2019-05-11T05:30:53.506Z,29.72
2019-05-11T05:31:57.452Z,25.52
2019-05-11T05:33:01.027Z,24.95
2019-05-11T05:34:05.047Z,29.20
2019-05-11T05:35:08.787Z,27.85
2019-05-11T05:36:12.742Z,25.30
2019-05-11T05:37:16.316Z,26.10
2019-05-11T05:38:20.294Z,28.15
2019-05-11T05:39:23.899Z,25.80
2019-05-11T05:40:27.856Z,26.33
2019-05-11T05:41:31.428Z,25.25
2019-05-11T05:42:35.443Z,23.62
2019-05-11T05:43:39.054Z,28.85
2019-05-11T05:44:42.996Z,23.18
2019-05-11T05:45:46.567Z,25.40
2019-05-11T05:46:50.509Z,23.62
2019-05-11T05:47:54.085Z,24.05
2019-05-11T05:48:58.054Z,23.50
2019-05-11T05:50:01.731Z,22.58
2019-05-11T05:51:05.703Z,28.32
2019-05-11T05:52:09.326Z,23.70
2019-05-11T05:53:13.239Z,26.73
2019-05-11T05:54:16.811Z,24.10
2019-05-11T05:55:20.763Z,27.20
2019-05-11T05:56:24.364Z,23.27
2019-05-11T05:57:28.307Z,22.85
2019-05-11T05:58:31.906Z,22.80
2019-05-11T05:59:35.885Z,21.37
2019-05-11T06:00:39.458Z,24.77
2019-05-11T06:01:43.400Z,24.02
2019-05-11T06:02:46.972Z,24.52
2019-05-11T06:03:50.910Z,22.52
2019-05-11T06:04:54.514Z,22.98
2019-05-11T06:05:58.450Z,23.40
2019-05-11T06:07:02.021Z,23.40
2019-05-11T06:08:05.954Z,22.13
2019-05-11T06:09:09.532Z,20.35
2019-05-11T06:10:13.951Z,23.27
2019-05-11T06:11:17.606Z,22.48
2019-05-11T06:12:21.615Z,26.15
2019-05-11T06:13:25.192Z,24.40
2019-05-11T06:14:29.132Z,25.68
2019-05-11T06:15:32.820Z,24.90
2019-05-11T06:16:36.760Z,21.17
2019-05-11T06:17:40.328Z,20.82
2019-05-11T06:18:44.264Z,19.05
2019-05-11T06:19:47.859Z,19.17
2019-05-11T06:20:51.831Z,25.52
2019-05-11T06:21:55.399Z,24.30
2019-05-11T06:22:59.344Z,26.97
2019-05-11T06:24:06.647Z,25.68
2019-05-11T06:25:08.603Z,23.87
2019-05-11T06:26:12.207Z,25.17
2019-05-11T06:27:16.148Z,25.12
2019-05-11T06:28:19.715Z,23.87
2019-05-11T06:29:23.654Z,22.13
2019-05-11T06:30:27.266Z,24.27
2019-05-11T06:31:32.475Z,29.75
2019-05-11T06:32:36.076Z,29.87
2019-05-11T06:33:40.025Z,23.47
2019-05-11T06:34:43.592Z,27.87
2019-05-11T06:35:47.555Z,25.68
2019-05-11T06:36:51.152Z,23.80
2019-05-11T06:37:55.091Z,30.37
2019-05-11T06:38:58.668Z,23.47
2019-05-11T06:40:02.622Z,31.52
2019-05-11T06:41:06.224Z,25.85
2019-05-11T06:42:10.168Z,24.12
2019-05-11T06:43:13.746Z,25.25
2019-05-11T06:44:17.734Z,22.17
2019-05-11T06:45:21.323Z,24.25
2019-05-11T06:46:25.288Z,26.50
2019-05-11T06:47:28.852Z,23.15
2019-05-11T06:48:32.804Z,30.60
2019-05-11T06:49:36.380Z,29.57
2019-05-11T06:50:40.356Z,27.35
2019-05-11T06:51:43.935Z,31.17
2019-05-11T06:52:48.712Z,27.80
2019-05-11T06:53:52.331Z,26.75
2019-05-11T06:54:56.256Z,26.77
2019-05-11T06:56:00.625Z,26.80
2019-05-11T06:57:04.595Z,26.73
2019-05-11T06:58:08.173Z,33.85
2019-05-11T06:59:12.119Z,30.27
2019-05-11T07:00:16.237Z,31.73
2019-05-11T07:01:20.171Z,31.55
2019-05-11T07:02:24.179Z,28.52
2019-05-11T07:03:28.118Z,28.47
2019-05-11T07:04:31.694Z,30.85
2019-05-11T07:05:35.627Z,26.68
2019-05-11T07:06:39.248Z,26.48
2019-05-11T07:07:47.571Z,25.08
2019-05-11T07:08:48.406Z,27.48
2019-05-11T07:09:52.349Z,27.50
2019-05-11T07:10:55.916Z,26.27
2019-05-11T07:12:00.036Z,28.02
2019-05-11T07:13:03.668Z,25.00
2019-05-11T07:14:19.865Z,25.23
2019-05-11T07:15:12.984Z,32.70
2019-05-11T07:16:16.924Z,31.17
2019-05-11T07:17:20.497Z,29.10
2019-05-11T07:18:24.449Z,28.30
2019-05-11T07:19:28.104Z,27.00
2019-05-11T07:20:32.060Z,26.80
2019-05-11T07:21:35.632Z,28.50
2019-05-11T07:22:39.569Z,32.08
2019-05-11T07:23:43.142Z,31.17
2019-05-11T07:24:47.116Z,32.35
2019-05-11T07:25:50.695Z,34.35
2019-05-11T07:26:54.643Z,39.65
2019-05-11T07:27:58.248Z,35.10
2019-05-11T07:29:02.186Z,39.67
2019-05-11T07:30:07.249Z,36.28
2019-05-11T07:31:11.142Z,35.80
2019-05-11T07:32:22.416Z,38.80
2019-05-11T07:33:20.337Z,36.70
2019-05-11T07:34:23.915Z,43.78
2019-05-11T07:35:28.007Z,40.23
2019-05-11T07:36:31.569Z,36.55
2019-05-11T07:37:35.515Z,38.67
2019-05-11T07:38:39.082Z,39.18
2019-05-11T07:39:43.023Z,34.85
2019-05-11T07:40:47.649Z,37.75
2019-05-11T07:41:51.676Z,44.45
2019-05-11T07:42:55.277Z,41.68
2019-05-11T07:43:59.227Z,38.33
2019-05-11T07:45:02.798Z,34.45
2019-05-11T07:46:07.786Z,36.17
2019-05-11T07:47:11.454Z,37.98
2019-05-11T07:48:15.405Z,36.20
2019-05-11T07:49:18.976Z,35.78
2019-05-11T07:50:22.915Z,32.75
2019-05-11T07:51:28.548Z,42.60
2019-05-11T07:52:32.126Z,32.50
2019-05-11T07:53:37.916Z,36.90
2019-05-11T07:54:41.295Z,32.93
2019-05-11T07:55:44.904Z,35.13
2019-05-11T07:56:48.892Z,44.00
2019-05-11T07:57:52.484Z,32.35
2019-05-11T07:58:58.084Z,32.63
2019-05-11T08:00:01.757Z,35.17
2019-05-11T08:01:05.752Z,36.10
2019-05-11T08:02:09.354Z,38.67
2019-05-11T08:03:13.304Z,33.25
2019-05-11T08:04:18.310Z,31.77
2019-05-11T08:05:22.496Z,34.20
2019-05-11T08:06:28.344Z,33.40
2019-05-11T08:07:31.686Z,32.95
2019-05-11T08:08:35.263Z,33.83
2019-05-11T08:09:39.203Z,40.52
2019-05-11T08:10:42.776Z,36.90
2019-05-11T08:11:47.836Z,34.05
2019-05-11T08:12:51.547Z,37.65
2019-05-11T08:13:55.500Z,32.75
2019-05-11T08:15:08.108Z,31.77
2019-05-11T08:16:04.650Z,32.70
2019-05-11T08:17:08.756Z,36.13
2019-05-11T08:18:12.843Z,34.60
2019-05-11T08:19:18.478Z,35.65
2019-05-11T08:20:22.280Z,32.20
2019-05-11T08:21:28.103Z,33.33
2019-05-11T08:22:31.487Z,32.65
2019-05-11T08:23:35.076Z,36.25
2019-05-11T08:24:39.011Z,32.40
2019-05-11T08:25:42.593Z,32.10
2019-05-11T08:26:48.027Z,33.85
2019-05-11T08:27:51.856Z,38.98
2019-05-11T08:28:57.863Z,31.35
2019-05-11T08:30:01.033Z,31.33
2019-05-11T08:31:04.982Z,35.55
2019-05-11T08:32:08.697Z,29.70
2019-05-11T08:33:12.673Z,33.45
2019-05-11T08:34:18.040Z,30.20
2019-05-11T08:35:22.107Z,31.85
2019-05-11T08:36:25.687Z,35.10
2019-05-11T08:37:29.660Z,33.02
2019-05-11T08:38:33.227Z,33.95
2019-05-11T08:39:37.974Z,33.10
2019-05-11T08:40:41.683Z,30.43
2019-05-11T08:41:45.628Z,30.15
2019-05-11T08:42:49.215Z,32.93
2019-05-11T08:43:53.188Z,33.25
2019-05-11T08:45:15.333Z,33.00
2019-05-11T08:46:02.378Z,29.57
2019-05-11T08:47:08.360Z,26.93
2019-05-11T08:48:11.607Z,25.27
2019-05-11T08:49:16.663Z,30.17
2019-05-11T08:50:20.807Z,31.00
2019-05-11T08:51:24.422Z,28.62
2019-05-11T08:52:28.394Z,28.32
2019-05-11T08:53:31.977Z,31.68
2019-05-11T08:54:38.024Z,41.02
2019-05-11T08:55:41.221Z,28.30
2019-05-11T08:56:45.159Z,30.15
2019-05-11T08:57:48.738Z,30.20
2019-05-11T08:58:55.151Z,26.33
2019-05-11T08:59:58.060Z,28.83
2019-05-11T09:01:02.074Z,31.90
2019-05-11T09:02:07.941Z,29.92
2019-05-11T09:03:11.235Z,29.12
2019-05-11T09:04:14.807Z,27.48
2019-05-11T09:05:18.977Z,24.00
2019-05-11T09:06:22.664Z,25.95
2019-05-11T09:07:27.849Z,27.32
2019-05-11T09:08:31.475Z,25.88
2019-05-11T09:09:37.821Z,29.25
2019-05-11T09:10:40.631Z,26.45
2019-05-11T09:11:44.597Z,29.15
2019-05-11T09:12:48.796Z,25.88
2019-05-11T09:13:53.012Z,26.15
2019-05-11T09:14:58.100Z,26.50
2019-05-11T09:16:02.263Z,28.00
2019-05-11T09:17:07.801Z,25.92
2019-05-11T09:18:11.466Z,23.83
2019-05-11T09:19:15.022Z,24.98
2019-05-11T09:20:19.112Z,25.70
2019-05-11T09:21:22.733Z,20.55
2019-05-11T09:22:28.380Z,27.22
2019-05-11T09:23:37.347Z,24.98
2019-05-11T09:24:38.591Z,22.50
2019-05-11T09:25:42.410Z,24.12
2019-05-11T09:26:47.927Z,30.77
2019-05-11T09:27:51.675Z,21.95
2019-05-11T09:28:58.032Z,22.40
2019-05-11T09:30:00.830Z,24.63
2019-05-11T09:31:04.895Z,27.73
2019-05-11T09:32:08.823Z,21.95
2019-05-11T09:33:12.895Z,21.25
2019-05-11T09:34:18.125Z,21.82
2019-05-11T09:35:22.107Z,24.32
2019-05-11T09:36:25.774Z,28.70
2019-05-11T09:37:29.701Z,25.55
2019-05-11T09:38:33.276Z,23.90
2019-05-11T09:39:38.357Z,23.05
2019-05-11T09:40:42.097Z,24.02
2019-05-11T09:41:46.101Z,24.27
2019-05-11T09:42:51.364Z,25.77
2019-05-11T09:43:55.302Z,24.27
2019-05-11T09:44:58.875Z,22.70
2019-05-11T09:46:02.811Z,23.90
2019-05-11T09:47:08.389Z,23.15
2019-05-11T09:48:12.039Z,31.97
2019-05-11T09:49:15.621Z,22.42
2019-05-11T09:50:19.561Z,27.77
2019-05-11T09:51:23.130Z,23.27
2019-05-11T09:52:30.392Z,25.85
2019-05-11T09:53:33.608Z,30.70
2019-05-11T09:54:38.208Z,30.17
2019-05-11T09:55:42.018Z,25.65
2019-05-11T09:56:48.454Z,26.68
2019-05-11T09:57:51.175Z,26.62
2019-05-11T09:58:55.163Z,23.95
2019-05-11T09:59:58.737Z,29.37
2019-05-11T10:01:02.675Z,33.00
2019-05-11T10:02:07.963Z,29.02
2019-05-11T10:03:11.836Z,28.30
2019-05-11T10:04:15.453Z,26.10
2019-05-11T10:05:21.039Z,26.70
2019-05-11T10:06:24.620Z,29.15
2019-05-11T10:07:29.008Z,30.15
2019-05-11T10:08:33.776Z,31.15
2019-05-11T10:09:38.363Z,30.45
2019-05-11T10:10:42.068Z,28.85
2019-05-11T10:11:47.983Z,29.67
2019-05-11T10:12:52.943Z,30.52
2019-05-11T10:13:57.774Z,33.08
2019-05-11T10:15:01.583Z,30.50
2019-05-11T10:16:08.113Z,34.83
2019-05-11T10:17:10.735Z,33.78
2019-05-11T10:18:14.685Z,33.60
2019-05-11T10:19:18.389Z,30.05
2019-05-11T10:20:22.411Z,33.83
2019-05-11T10:21:27.799Z,37.93
2019-05-11T10:22:31.559Z,39.13
2019-05-11T10:23:35.131Z,32.67
2019-05-11T10:24:39.108Z,35.03
2019-05-11T10:25:42.684Z,33.92
2019-05-11T10:26:48.687Z,30.82
2019-05-11T10:27:51.834Z,33.45
2019-05-11T10:28:55.775Z,33.83
2019-05-11T10:29:59.386Z,34.53
2019-05-11T10:31:03.329Z,34.48
2019-05-11T10:32:08.006Z,31.48
2019-05-11T10:33:12.138Z,33.65
2019-05-11T10:34:17.803Z,31.50
2019-05-11T10:35:21.364Z,34.25
2019-05-11T10:36:24.931Z,32.80
2019-05-11T10:37:28.875Z,36.30
2019-05-11T10:38:32.455Z,36.05
2019-05-11T10:39:38.286Z,28.92
2019-05-11T10:40:41.923Z,33.08
2019-05-11T10:41:47.919Z,37.38
2019-05-11T10:42:51.095Z,34.25
2019-05-11T10:43:55.030Z,31.68
2019-05-11T10:44:58.598Z,31.27
2019-05-11T10:46:16.007Z,31.35
2019-05-11T10:47:08.253Z,35.20
2019-05-11T10:48:12.274Z,29.85
2019-05-11T10:49:18.295Z,34.40
2019-05-11T10:50:21.555Z,31.52
2019-05-11T10:51:25.123Z,31.30
2019-05-11T10:52:29.067Z,30.55
2019-05-11T10:53:32.659Z,30.68
2019-05-11T10:54:39.714Z,28.20
2019-05-11T10:55:41.871Z,30.35
2019-05-11T10:56:47.997Z,26.82
2019-05-11T10:57:51.041Z,27.40
2019-05-11T10:58:54.990Z,30.17
2019-05-11T10:59:58.564Z,27.15
2019-05-11T11:01:02.542Z,30.57
2019-05-11T11:02:08.031Z,26.77
2019-05-11T11:03:11.720Z,34.20
2019-05-11T11:04:15.336Z,33.40
2019-05-11T11:05:19.370Z,31.50
2019-05-11T11:06:22.943Z,26.37
2019-05-11T11:07:28.879Z,26.27
2019-05-11T11:08:32.147Z,30.55
2019-05-11T11:09:38.464Z,30.70
2019-05-11T11:10:41.364Z,30.08
2019-05-11T11:11:45.296Z,27.13
2019-05-11T11:12:49.200Z,32.17
2019-05-11T11:13:53.264Z,29.50
2019-05-11T11:14:58.740Z,28.20
2019-05-11T11:16:02.437Z,31.37
2019-05-11T11:17:06.011Z,29.87
2019-05-11T11:18:09.990Z,26.95
2019-05-11T11:19:13.574Z,25.60
2019-05-11T11:20:18.683Z,26.30
2019-05-11T11:21:23.079Z,25.62
2019-05-11T11:22:37.021Z,27.80
2019-05-11T11:23:32.392Z,26.75
2019-05-11T11:24:37.518Z,24.80
2019-05-11T11:25:41.193Z,25.20
2019-05-11T11:26:45.135Z,29.65
2019-05-11T11:27:48.939Z,25.43
2019-05-11T11:28:53.015Z,24.10
2019-05-11T11:29:58.265Z,26.68
2019-05-11T11:31:02.366Z,24.67
2019-05-11T11:32:07.964Z,21.25
2019-05-11T11:33:11.564Z,25.43
2019-05-11T11:34:15.136Z,26.77
2019-05-11T11:35:19.110Z,23.70
2019-05-11T11:36:22.686Z,22.93
2019-05-11T11:37:28.078Z,19.23
2019-05-11T11:38:31.842Z,20.82
2019-05-11T11:39:35.858Z,19.27
2019-05-11T11:40:42.561Z,20.10
2019-05-11T11:41:45.003Z,21.52
2019-05-11T11:42:48.570Z,22.58
2019-05-11T11:43:52.519Z,19.35
2019-05-11T11:44:58.256Z,25.68
2019-05-11T11:46:01.755Z,22.77
2019-05-11T11:47:05.326Z,17.42
2019-05-11T11:48:09.339Z,19.30
2019-05-11T11:49:12.915Z,19.45
2019-05-11T11:50:17.834Z,18.77
2019-05-11T11:51:21.639Z,20.17
2019-05-11T11:52:27.577Z,20.62
2019-05-11T11:53:30.811Z,16.93
2019-05-11T11:54:34.744Z,23.62
2019-05-11T11:55:39.032Z,14.00
2019-05-11T11:56:43.208Z,16.15
2019-05-11T11:57:49.005Z,15.85
2019-05-11T11:58:52.392Z,20.92
2019-05-11T11:59:58.538Z,18.05
2019-05-11T12:01:01.602Z,13.18
2019-05-11T12:02:05.234Z,14.50
2019-05-11T12:03:09.174Z,15.28
2019-05-11T12:04:12.747Z,15.83
2019-05-11T12:05:17.656Z,17.75
2019-05-11T12:06:21.421Z,22.05
2019-05-11T12:07:25.355Z,17.70
2019-05-11T12:08:28.917Z,18.17
2019-05-11T12:09:32.867Z,15.93
2019-05-11T12:10:37.962Z,20.00
2019-05-11T12:11:42.009Z,16.10
2019-05-11T12:12:47.516Z,16.60
2019-05-11T12:13:51.159Z,17.57
2019-05-11T12:14:54.793Z,16.48
2019-05-11T12:15:58.755Z,14.03
2019-05-11T12:17:07.818Z,19.17
2019-05-11T12:18:08.362Z,16.85
2019-05-11T12:19:11.968Z,15.38
2019-05-11T12:20:18.081Z,16.52
2019-05-11T12:21:21.427Z,20.60
2019-05-11T12:22:25.368Z,18.85
2019-05-11T12:23:28.951Z,22.10
2019-05-11T12:24:32.928Z,23.42
2019-05-11T12:25:40.286Z,29.02
2019-05-11T12:26:42.098Z,24.45
2019-05-11T12:27:45.715Z,25.32
2019-05-11T12:28:49.656Z,20.20
2019-05-11T12:29:53.227Z,21.20
2019-05-11T12:30:58.558Z,23.73
2019-05-11T12:32:03.878Z,18.27
2019-05-11T12:33:08.338Z,23.73
2019-05-11T12:34:11.922Z,17.70
2019-05-11T12:35:17.844Z,18.62
2019-05-11T12:36:21.258Z,19.82
2019-05-11T12:37:25.200Z,22.80
2019-05-11T12:38:28.803Z,20.60
2019-05-11T12:39:32.791Z,19.07
2019-05-11T12:40:38.656Z,19.55
2019-05-11T12:41:41.957Z,20.17
2019-05-11T12:42:45.536Z,19.57
2019-05-11T12:43:49.480Z,21.30
2019-05-11T12:44:53.157Z,18.77
2019-05-11T12:45:58.737Z,24.00
2019-05-11T12:47:02.467Z,17.73
2019-05-11T12:48:08.820Z,16.55
2019-05-11T12:49:11.628Z,19.60
2019-05-11T12:50:18.418Z,18.52
2019-05-11T12:51:21.370Z,14.35
2019-05-11T12:52:27.892Z,25.15
2019-05-11T12:53:30.629Z,18.77
2019-05-11T12:54:34.558Z,18.45
2019-05-11T12:55:38.183Z,18.30
2019-05-11T12:56:42.104Z,14.33
2019-05-11T12:57:47.329Z,19.02
2019-05-11T12:58:51.307Z,16.73
2019-05-11T12:59:54.888Z,14.35
2019-05-11T13:00:58.823Z,16.12
2019-05-11T13:02:02.396Z,16.10
2019-05-11T13:03:07.993Z,16.50
2019-05-11T13:04:11.731Z,21.45
2019-05-11T13:05:17.848Z,17.15
2019-05-11T13:06:20.931Z,16.27
2019-05-11T13:07:24.872Z,15.55
2019-05-11T13:08:28.525Z,15.78
2019-05-11T13:09:32.490Z,16.93
2019-05-11T13:10:37.650Z,14.13
2019-05-11T13:11:41.714Z,15.00
2019-05-11T13:12:45.286Z,20.15
2019-05-11T13:13:49.258Z,22.52
2019-05-11T13:14:52.826Z,17.73
2019-05-11T13:15:58.518Z,17.05
2019-05-11T13:17:01.999Z,14.83
2019-05-11T13:18:08.230Z,13.25
2019-05-11T13:19:11.199Z,16.55
2019-05-11T13:20:17.935Z,15.05
2019-05-11T13:21:20.703Z,14.80
2019-05-11T13:22:24.682Z,16.02
2019-05-11T13:23:28.252Z,11.05
2019-05-11T13:24:32.287Z,14.55
2019-05-11T13:25:35.861Z,13.93
2019-05-11T13:26:39.797Z,11.10
2019-05-11T13:27:43.362Z,13.58
2019-05-11T13:28:48.422Z,13.32
2019-05-11T13:29:52.289Z,13.22
2019-05-11T13:30:57.987Z,14.30
2019-05-11T13:32:01.612Z,12.58
2019-05-11T13:33:05.596Z,13.32
2019-05-11T13:34:09.170Z,12.55
2019-05-11T13:35:13.347Z,11.85
2019-05-11T13:36:18.697Z,14.80
2019-05-11T13:37:22.508Z,16.45
2019-05-11T13:38:28.092Z,10.82
2019-05-11T13:39:31.772Z,11.60
2019-05-11T13:40:35.342Z,10.85
2019-05-11T13:41:39.282Z,10.45
2019-05-11T13:42:42.855Z,10.43
2019-05-11T13:43:48.573Z,10.10
2019-05-11T13:44:52.243Z,12.90
2019-05-11T13:45:58.237Z,10.10